createdAt,value
2022-09-26T00:01:43.169Z,100.00
2022-09-26T00:03:52.818Z,100.00
2022-09-26T00:06:03.433Z,100.00
2022-09-26T00:08:11.350Z,100.00
2022-09-26T00:10:21.740Z,100.00
2022-09-26T00:12:30.473Z,100.00
2022-09-26T00:14:39.478Z,100.00
2022-09-26T00:16:47.666Z,100.00
2022-09-26T00:18:58.995Z,100.00
2022-09-26T00:21:08.910Z,100.00
2022-09-26T00:23:16.996Z,100.00
2022-09-26T00:25:27.349Z,100.00
2022-09-26T00:27:35.148Z,100.00
2022-09-26T00:29:42.941Z,100.00
2022-09-26T00:31:50.608Z,100.00
2022-09-26T00:33:59.354Z,100.00
2022-09-26T00:36:07.763Z,100.00
2022-09-26T00:38:15.522Z,100.00
2022-09-26T00:40:27.140Z,100.00
2022-09-26T00:42:37.697Z,100.00
2022-09-26T00:44:54.618Z,100.00
2022-09-26T00:47:02.513Z,100.00
2022-09-26T00:49:25.901Z,100.00
2022-09-26T00:51:34.790Z,100.00
2022-09-26T00:53:47.945Z,100.00
2022-09-26T00:55:59.087Z,100.00
2022-09-26T00:58:13.088Z,100.00
2022-09-26T01:00:20.958Z,100.00
2022-09-26T01:02:33.963Z,100.00
2022-09-26T01:04:45.326Z,100.00
2022-09-26T01:06:53.092Z,100.00
2022-09-26T01:09:08.622Z,100.00
2022-09-26T01:11:17.534Z,100.00
2022-09-26T01:13:28.413Z,100.00
2022-09-26T01:15:39.077Z,100.00
2022-09-26T01:17:48.649Z,100.00
2022-09-26T01:20:23.862Z,100.00
2022-09-26T01:23:02.979Z,100.00
2022-09-26T01:25:27.843Z,100.00
2022-09-26T01:28:00.040Z,100.00
2022-09-26T01:30:14.308Z,100.00
2022-09-26T01:32:50.148Z,100.00
2022-09-26T01:35:04.326Z,100.00
2022-09-26T01:37:22.580Z,100.00
2022-09-26T01:39:47.533Z,100.00
2022-09-26T01:42:07.586Z,100.00
2022-09-26T01:44:28.904Z,100.00
2022-09-26T01:46:44.236Z,100.00
2022-09-26T01:48:58.896Z,100.00
2022-09-26T01:51:16.058Z,100.00
2022-09-26T01:53:29.273Z,100.00
2022-09-26T01:55:42.415Z,100.00
2022-09-26T01:57:55.692Z,100.00
2022-09-26T02:00:07.876Z,100.00
2022-09-26T02:02:28.753Z,100.00
2022-09-26T02:04:41.522Z,100.00
2022-09-26T02:06:54.050Z,100.00
2022-09-26T02:09:10.840Z,100.00
2022-09-26T02:11:20.818Z,100.00
2022-09-26T02:13:34.432Z,100.00
2022-09-26T02:15:43.177Z,100.00
2022-09-26T02:17:58.935Z,100.00
2022-09-26T02:20:14.598Z,100.00
2022-09-26T02:22:26.697Z,100.00
2022-09-26T02:24:34.706Z,100.00
2022-09-26T02:26:43.574Z,100.00
2022-09-26T02:28:51.561Z,100.00
2022-09-26T02:31:01.461Z,100.00
2022-09-26T02:33:13.051Z,100.00
2022-09-26T02:35:34.381Z,100.00
2022-09-26T02:37:43.495Z,100.00
2022-09-26T02:39:54.317Z,100.00
2022-09-26T02:42:16.389Z,100.00
2022-09-26T02:44:45.834Z,100.00
2022-09-26T02:47:23.588Z,100.00
2022-09-26T02:50:03.002Z,100.00
2022-09-26T02:52:24.591Z,100.00
2022-09-26T02:54:41.759Z,100.00
2022-09-26T02:57:04.302Z,100.00
2022-09-26T02:59:22.948Z,100.00
2022-09-26T03:01:40.283Z,100.00
2022-09-26T03:03:55.944Z,100.00
2022-09-26T03:06:11.124Z,100.00
2022-09-26T03:08:25.488Z,100.00
2022-09-26T03:10:35.223Z,100.00
2022-09-26T03:12:45.912Z,100.00
2022-09-26T03:14:58.551Z,100.00
2022-09-26T03:17:07.711Z,100.00
2022-09-26T03:19:22.548Z,100.00
2022-09-26T03:21:36.994Z,100.00
2022-09-26T03:23:46.198Z,100.00
2022-09-26T03:26:02.475Z,100.00
2022-09-26T03:28:13.161Z,100.00
2022-09-26T03:30:23.149Z,100.00
2022-09-26T03:32:49.424Z,100.00
2022-09-26T03:34:57.385Z,100.00
2022-09-26T03:37:08.226Z,100.00
2022-09-26T03:39:16.559Z,100.00
2022-09-26T03:41:37.534Z,100.00
2022-09-26T03:44:04.322Z,100.00
2022-09-26T03:46:39.803Z,100.00
2022-09-26T03:48:50.904Z,100.00
2022-09-26T03:50:58.624Z,100.00
2022-09-26T03:53:08.947Z,100.00
2022-09-26T03:55:16.872Z,100.00
2022-09-26T03:57:25.973Z,100.00
2022-09-26T03:59:40.598Z,100.00
2022-09-26T04:01:51.717Z,100.00
2022-09-26T04:04:00.460Z,100.00
2022-09-26T04:06:10.915Z,100.00
2022-09-26T04:08:23.199Z,100.00
2022-09-26T04:10:31.337Z,100.00
2022-09-26T04:12:39.110Z,100.00
2022-09-26T04:14:46.899Z,100.00
2022-09-26T04:16:54.744Z,100.00
2022-09-26T04:19:14.162Z,100.00
2022-09-26T04:21:22.054Z,100.00
2022-09-26T04:23:35.654Z,100.00
2022-09-26T04:25:43.456Z,100.00
2022-09-26T04:27:51.250Z,100.00
2022-09-26T04:30:00.000Z,100.00
2022-09-26T04:32:19.642Z,100.00
2022-09-26T04:34:47.346Z,100.00
2022-09-26T04:36:55.347Z,100.00
2022-09-26T04:39:06.874Z,100.00
2022-09-26T04:41:20.085Z,100.00
2022-09-26T04:43:29.481Z,100.00
2022-09-26T04:45:37.431Z,100.00
2022-09-26T04:47:52.761Z,100.00
2022-09-26T04:50:06.822Z,100.00
2022-09-26T04:52:16.134Z,100.00
2022-09-26T04:54:29.184Z,100.00
2022-09-26T04:56:48.251Z,100.00
2022-09-26T04:58:58.388Z,100.00
2022-09-26T05:01:13.947Z,100.00
2022-09-26T05:03:46.542Z,100.00
2022-09-26T05:05:54.426Z,100.00
2022-09-26T05:08:02.415Z,100.00
2022-09-26T05:10:13.483Z,100.00
2022-09-26T05:12:30.220Z,100.00
2022-09-26T05:14:38.195Z,100.00
2022-09-26T05:16:46.105Z,100.00
2022-09-26T05:18:56.684Z,100.00
2022-09-26T05:21:07.602Z,100.00
2022-09-26T05:23:44.413Z,100.00
2022-09-26T05:26:08.404Z,100.00
2022-09-26T05:28:17.915Z,100.00
2022-09-26T05:30:57.961Z,100.00
2022-09-26T05:33:26.651Z,100.00
2022-09-26T05:35:35.881Z,100.00
2022-09-26T05:37:44.267Z,100.00
2022-09-26T05:40:05.425Z,100.00
2022-09-26T05:42:18.185Z,100.00
2022-09-26T05:44:28.395Z,100.00
2022-09-26T05:46:38.353Z,100.00
2022-09-26T05:48:51.184Z,100.00
2022-09-26T05:51:09.180Z,100.00
2022-09-26T05:53:20.236Z,100.00
2022-09-26T05:55:30.386Z,100.00
2022-09-26T05:58:07.798Z,100.00
2022-09-26T06:00:35.795Z,100.00
2022-09-26T06:02:43.782Z,100.00
2022-09-26T06:05:00.159Z,100.00
2022-09-26T06:07:28.336Z,100.00
2022-09-26T06:09:36.306Z,100.00
2022-09-26T06:11:59.058Z,100.00
2022-09-26T06:14:11.687Z,100.00
2022-09-26T06:16:21.400Z,100.00
2022-09-26T06:18:29.345Z,100.00
2022-09-26T06:20:37.121Z,100.00
2022-09-26T06:22:46.050Z,100.00
2022-09-26T06:24:54.249Z,100.00
2022-09-26T06:27:02.556Z,100.00
2022-09-26T06:29:15.635Z,100.00
2022-09-26T06:31:23.752Z,100.00
2022-09-26T06:33:54.529Z,100.00
2022-09-26T06:36:22.876Z,100.00
2022-09-26T06:38:31.953Z,100.00
2022-09-26T06:40:40.039Z,100.00
2022-09-26T06:42:48.440Z,100.00
2022-09-26T06:45:09.700Z,100.00
2022-09-26T06:47:36.473Z,100.00
2022-09-26T06:50:13.661Z,100.00
2022-09-26T06:52:25.894Z,100.00
2022-09-26T06:54:34.113Z,100.00
2022-09-26T06:56:42.473Z,99.31
2022-09-26T06:58:50.202Z,99.89
2022-09-26T07:01:06.665Z,99.25
2022-09-26T07:03:33.329Z,98.72
2022-09-26T07:05:47.161Z,97.65
2022-09-26T07:07:57.781Z,97.25
2022-09-26T07:10:11.019Z,98.15
2022-09-26T07:12:33.573Z,98.82
2022-09-26T07:14:41.483Z,97.54
2022-09-26T07:17:02.869Z,96.51
2022-09-26T07:19:36.666Z,96.22
2022-09-26T07:21:47.682Z,95.56
2022-09-26T07:24:08.250Z,93.70
2022-09-26T07:26:19.719Z,93.05
2022-09-26T07:28:27.991Z,93.10
2022-09-26T07:30:37.769Z,93.78
2022-09-26T07:32:55.935Z,94.05
2022-09-26T07:35:27.395Z,94.32
2022-09-26T07:37:35.309Z,92.72
2022-09-26T07:39:43.241Z,91.78
2022-09-26T07:41:51.364Z,90.61
2022-09-26T07:46:40.132Z,83.71
2022-09-26T07:49:02.984Z,81.79
2022-09-26T07:51:32.454Z,81.26
2022-09-26T07:53:42.689Z,80.42
2022-09-26T07:56:10.569Z,81.13
2022-09-26T07:58:55.475Z,81.27
2022-09-26T08:01:26.592Z,80.67
2022-09-26T08:03:40.634Z,79.62
2022-09-26T08:06:03.285Z,82.19
2022-09-26T08:08:11.251Z,80.98
2022-09-26T08:10:39.268Z,82.47
2022-09-26T08:12:55.904Z,80.54
2022-09-26T08:15:35.940Z,80.43
2022-09-26T08:17:46.582Z,80.21
2022-09-26T08:19:54.568Z,81.81
2022-09-26T08:22:07.507Z,80.84
2022-09-26T08:24:15.890Z,80.76
2022-09-26T08:26:58.542Z,80.43
2022-09-26T08:29:14.039Z,80.26
2022-09-26T08:31:23.773Z,80.27
2022-09-26T08:33:34.483Z,79.06
2022-09-26T08:35:43.025Z,78.65
2022-09-26T08:38:09.087Z,77.67
2022-09-26T08:40:19.917Z,76.18
2022-09-26T08:43:03.633Z,75.49
2022-09-26T08:45:54.179Z,76.52
2022-09-26T08:48:34.631Z,74.18
2022-09-26T08:50:59.896Z,73.58
2022-09-26T08:53:16.320Z,71.12
2022-09-26T08:55:33.126Z,72.56
2022-09-26T08:57:45.014Z,73.13
2022-09-26T08:59:54.867Z,75.11
2022-09-26T09:02:13.940Z,76.19
2022-09-26T09:04:41.297Z,75.86
2022-09-26T09:06:50.009Z,74.96
2022-09-26T09:09:00.942Z,75.95
2022-09-26T09:11:30.868Z,75.05
2022-09-26T09:13:58.934Z,71.94
2022-09-26T09:16:55.066Z,65.71
2022-09-26T09:19:30.670Z,60.03
2022-09-26T09:22:03.625Z,54.62
2022-09-26T09:24:40.149Z,52.89
2022-09-26T09:29:56.701Z,53.78
2022-09-26T09:32:27.097Z,47.61
2022-09-26T09:34:56.491Z,48.73
2022-09-26T09:37:26.610Z,51.25
2022-09-26T09:39:59.401Z,52.50
2022-09-26T09:42:25.045Z,49.23
2022-09-26T09:44:46.503Z,49.95
2022-09-26T09:46:54.905Z,51.64
2022-09-26T09:49:20.248Z,51.11
2022-09-26T09:51:39.463Z,48.62
2022-09-26T09:54:05.392Z,43.64
2022-09-26T09:56:28.324Z,45.63
2022-09-26T09:58:53.166Z,47.26
2022-09-26T10:01:09.927Z,46.74
2022-09-26T10:03:27.841Z,49.48
2022-09-26T10:05:44.277Z,50.36
2022-09-26T10:08:03.483Z,54.63
2022-09-26T10:10:40.160Z,54.86
2022-09-26T10:13:22.863Z,50.50
2022-09-26T10:16:01.491Z,44.63
2022-09-26T10:18:28.259Z,44.03
2022-09-26T10:20:54.246Z,45.83
2022-09-26T10:23:04.600Z,46.61
2022-09-26T10:25:21.312Z,49.30
2022-09-26T10:27:38.451Z,51.19
2022-09-26T10:29:49.421Z,50.84
2022-09-26T10:32:02.782Z,52.14
2022-09-26T10:34:30.121Z,52.04
2022-09-26T10:36:40.301Z,51.64
2022-09-26T10:39:12.398Z,52.04
2022-09-26T10:41:27.799Z,50.79
2022-09-26T10:43:38.838Z,53.43
2022-09-26T10:46:02.183Z,54.12
2022-09-26T10:48:42.990Z,54.16
2022-09-26T10:51:11.252Z,55.64
2022-09-26T10:53:25.973Z,56.06
2022-09-26T10:55:37.717Z,57.07
2022-09-26T10:57:49.401Z,56.06
2022-09-26T11:00:06.649Z,56.23
2022-09-26T11:02:22.813Z,55.89
2022-09-26T11:04:47.533Z,53.98
2022-09-26T11:07:24.925Z,52.30
2022-09-26T11:09:49.483Z,52.85
2022-09-26T11:12:28.239Z,52.79
2022-09-26T11:14:48.752Z,52.66
2022-09-26T11:16:59.669Z,51.94
2022-09-26T11:19:17.321Z,52.13
2022-09-26T11:21:30.649Z,51.94
2022-09-26T11:23:47.611Z,52.26
2022-09-26T11:26:03.628Z,50.26
2022-09-26T11:28:17.655Z,48.15
2022-09-26T11:30:50.557Z,48.86
2022-09-26T11:33:08.730Z,49.46
2022-09-26T11:35:48.602Z,48.54
2022-09-26T11:38:08.609Z,51.18
2022-09-26T11:40:28.427Z,50.96
2022-09-26T11:42:54.999Z,51.11
2022-09-26T11:45:13.014Z,50.74
2022-09-26T11:48:11.315Z,52.38
2022-09-26T11:50:59.400Z,53.68
2022-09-26T11:53:31.292Z,53.87
2022-09-26T11:55:52.871Z,52.89
2022-09-26T11:58:09.016Z,54.34
2022-09-26T12:00:24.658Z,55.21
2022-09-26T12:02:48.878Z,52.92
2022-09-26T12:05:14.170Z,51.48
2022-09-26T12:07:34.316Z,52.90
2022-09-26T12:10:08.298Z,52.47
2022-09-26T12:12:24.380Z,53.29
2022-09-26T12:14:45.527Z,53.44
2022-09-26T12:17:04.569Z,53.27
2022-09-26T12:19:23.736Z,54.02
2022-09-26T12:22:02.850Z,54.43
2022-09-26T12:24:27.992Z,53.41
2022-09-26T12:26:49.078Z,54.45
2022-09-26T12:29:18.495Z,53.61
2022-09-26T12:31:37.330Z,52.67
2022-09-26T12:34:12.853Z,51.50
2022-09-26T12:36:31.454Z,52.48
2022-09-26T12:38:56.481Z,51.77
2022-09-26T12:41:16.593Z,51.41
2022-09-26T12:43:56.221Z,51.46
2022-09-26T12:46:18.767Z,51.81
2022-09-26T12:48:42.000Z,50.87
2022-09-26T12:51:04.509Z,50.63
2022-09-26T12:53:47.358Z,50.91
2022-09-26T12:56:07.172Z,52.36
2022-09-26T12:58:32.054Z,50.68
2022-09-26T13:00:47.254Z,50.61
2022-09-26T13:03:24.525Z,51.80
2022-09-26T13:05:44.297Z,52.77
2022-09-26T13:08:03.352Z,51.59
2022-09-26T13:10:28.123Z,52.36
2022-09-26T13:12:54.506Z,54.43
2022-09-26T13:15:21.962Z,55.39
2022-09-26T13:17:36.312Z,56.55
2022-09-26T13:19:51.759Z,56.81
2022-09-26T13:22:03.114Z,56.96
2022-09-26T13:24:18.760Z,56.66
2022-09-26T13:26:31.335Z,56.11
2022-09-26T13:29:00.465Z,60.16
2022-09-26T13:31:21.425Z,64.04
2022-09-26T13:33:36.719Z,67.50
2022-09-26T13:35:47.243Z,69.01
2022-09-26T13:38:20.623Z,68.57
2022-09-26T13:40:37.840Z,68.79
2022-09-26T13:42:50.918Z,69.37
2022-09-26T13:45:10.239Z,67.00
2022-09-26T13:47:27.581Z,66.34
2022-09-26T13:49:45.415Z,66.67
2022-09-26T13:52:08.668Z,64.50
2022-09-26T13:54:23.948Z,62.07
2022-09-26T13:56:44.230Z,62.49
2022-09-26T13:59:05.835Z,60.73
2022-09-26T14:01:30.370Z,62.70
2022-09-26T14:03:45.235Z,62.25
2022-09-26T14:05:55.542Z,63.49
2022-09-26T14:08:43.755Z,62.76
2022-09-26T14:10:56.331Z,63.01
2022-09-26T14:13:20.241Z,62.91
2022-09-26T14:15:30.091Z,63.43
2022-09-26T14:18:11.249Z,64.52
2022-09-26T14:20:27.396Z,61.43
2022-09-26T14:22:37.882Z,61.04
2022-09-26T14:24:46.032Z,61.19
2022-09-26T14:26:59.846Z,62.39
2022-09-26T14:29:28.054Z,61.15
2022-09-26T14:31:42.719Z,61.17
2022-09-26T14:33:56.096Z,62.21
2022-09-26T14:36:33.671Z,62.21
2022-09-26T14:38:43.162Z,64.61
2022-09-26T14:40:56.694Z,64.70
2022-09-26T14:43:16.079Z,64.31
2022-09-26T14:45:28.065Z,64.37
2022-09-26T14:47:46.344Z,63.97
2022-09-26T14:50:03.109Z,62.18
2022-09-26T14:52:20.506Z,61.65
2022-09-26T14:54:32.709Z,60.92
2022-09-26T14:56:47.194Z,62.00
2022-09-26T14:58:55.285Z,61.07
2022-09-26T15:01:06.464Z,61.80
2022-09-26T15:03:19.355Z,61.35
2022-09-26T15:05:28.499Z,62.49
2022-09-26T15:07:46.442Z,61.42
2022-09-26T15:10:00.739Z,61.44
2022-09-26T15:12:12.999Z,62.55
2022-09-26T15:14:29.125Z,62.09
2022-09-26T15:16:43.362Z,61.94
2022-09-26T15:18:55.565Z,62.08
2022-09-26T15:21:13.118Z,62.09
2022-09-26T15:23:30.411Z,63.03
2022-09-26T15:25:41.017Z,61.96
2022-09-26T15:27:56.748Z,61.33
2022-09-26T15:30:07.733Z,60.21
2022-09-26T15:32:20.563Z,61.01
2022-09-26T15:34:36.478Z,60.75
2022-09-26T15:36:45.670Z,59.38
2022-09-26T15:38:56.199Z,59.00
2022-09-26T15:41:05.467Z,60.19
2022-09-26T15:43:13.322Z,61.01
2022-09-26T15:45:33.545Z,60.24
2022-09-26T15:47:45.476Z,61.32
2022-09-26T15:50:08.702Z,62.38
2022-09-26T15:52:16.947Z,61.85
2022-09-26T15:54:31.221Z,62.28
2022-09-26T15:56:42.358Z,61.06
2022-09-26T15:58:54.219Z,62.34
2022-09-26T16:01:03.056Z,61.86
2022-09-26T16:03:40.030Z,63.49
2022-09-26T16:05:48.437Z,63.97
2022-09-26T16:07:58.733Z,64.98
2022-09-26T16:10:24.817Z,65.26
2022-09-26T16:12:33.652Z,66.97
2022-09-26T16:14:47.546Z,66.97
2022-09-26T16:17:00.381Z,67.55
2022-09-26T16:19:08.284Z,67.28
2022-09-26T16:21:21.984Z,67.68
2022-09-26T16:23:29.883Z,68.41
2022-09-26T16:25:56.487Z,68.56
2022-09-26T16:28:24.143Z,68.84
2022-09-26T16:30:45.469Z,70.12
2022-09-26T16:32:53.679Z,70.59
2022-09-26T16:35:14.579Z,69.92
2022-09-26T16:37:23.524Z,70.05
2022-09-26T16:39:33.095Z,70.73
2022-09-26T16:42:01.309Z,71.46
2022-09-26T16:44:28.830Z,72.22
2022-09-26T16:46:41.426Z,72.21
2022-09-26T16:48:56.713Z,71.92
2022-09-26T16:51:16.712Z,71.15
2022-09-26T16:53:26.035Z,72.02
2022-09-26T16:55:37.603Z,72.33
2022-09-26T16:57:55.063Z,72.42
2022-09-26T17:00:18.401Z,73.66
2022-09-26T17:02:31.558Z,74.48
2022-09-26T17:04:40.703Z,75.04
2022-09-26T17:06:49.416Z,75.49
2022-09-26T17:09:00.358Z,76.35
2022-09-26T17:11:17.101Z,76.54
2022-09-26T17:13:31.103Z,77.53
2022-09-26T17:15:39.583Z,77.22
2022-09-26T17:17:47.614Z,76.35
2022-09-26T17:19:59.605Z,76.39
2022-09-26T17:22:09.472Z,77.19
2022-09-26T17:24:20.955Z,76.88
2022-09-26T17:26:30.428Z,77.77
2022-09-26T17:28:44.664Z,77.49
2022-09-26T17:30:52.656Z,77.93
2022-09-26T17:33:01.126Z,78.20
2022-09-26T17:35:16.959Z,78.37
2022-09-26T17:37:25.028Z,79.19
2022-09-26T17:39:32.930Z,78.17
2022-09-26T17:41:40.897Z,78.35
2022-09-26T17:43:59.149Z,78.80
2022-09-26T17:46:15.236Z,78.71
2022-09-26T17:48:29.200Z,79.56
2022-09-26T17:50:40.554Z,79.25
2022-09-26T17:52:51.366Z,79.53
2022-09-26T17:55:05.999Z,80.13
2022-09-26T17:57:16.034Z,79.66
2022-09-26T17:59:28.720Z,79.73
2022-09-26T18:01:37.343Z,80.10
2022-09-26T18:03:45.414Z,80.44
2022-09-26T18:05:53.996Z,80.34
2022-09-26T18:08:04.594Z,80.11
2022-09-26T18:10:22.187Z,81.66
2022-09-26T18:12:50.599Z,81.84
2022-09-26T18:15:16.182Z,81.86
2022-09-26T18:17:24.328Z,82.38
2022-09-26T18:19:35.329Z,81.55
2022-09-26T18:21:43.191Z,80.89
2022-09-26T18:23:55.629Z,80.90
2022-09-26T18:26:04.031Z,80.93
2022-09-26T18:28:20.051Z,80.20
2022-09-26T18:30:30.522Z,80.39
2022-09-26T18:32:41.925Z,79.70
2022-09-26T18:34:51.803Z,80.13
2022-09-26T18:37:00.502Z,80.31
2022-09-26T18:39:08.527Z,80.21
2022-09-26T18:41:18.840Z,80.68
2022-09-26T18:43:29.564Z,80.53
2022-09-26T18:45:42.796Z,80.34
2022-09-26T18:47:50.975Z,80.34
2022-09-26T18:49:59.763Z,79.38
2022-09-26T18:52:09.635Z,79.13
2022-09-26T18:54:19.315Z,79.14
2022-09-26T18:56:39.742Z,78.82
2022-09-26T18:58:48.532Z,78.64
2022-09-26T19:01:01.878Z,78.48
2022-09-26T19:03:09.990Z,79.28
2022-09-26T19:05:22.528Z,79.95
2022-09-26T19:07:32.512Z,79.86
2022-09-26T19:09:41.763Z,80.61
2022-09-26T19:11:50.517Z,81.99
2022-09-26T19:14:00.780Z,82.24
2022-09-26T19:16:12.129Z,82.43
2022-09-26T19:18:20.097Z,82.65
2022-09-26T19:20:27.972Z,82.56
2022-09-26T19:22:36.161Z,81.62
2022-09-26T19:24:47.971Z,81.09
2022-09-26T19:26:58.669Z,80.64
2022-09-26T19:29:11.920Z,82.65
2022-09-26T19:31:22.887Z,81.47
2022-09-26T19:33:32.461Z,81.52
2022-09-26T19:35:42.100Z,81.64
2022-09-26T19:37:50.168Z,81.29
2022-09-26T19:39:58.353Z,81.31
2022-09-26T19:42:06.295Z,81.19
2022-09-26T19:44:14.964Z,80.64
2022-09-26T19:46:30.614Z,80.80
2022-09-26T19:48:39.086Z,80.69
2022-09-26T19:50:48.579Z,81.58
2022-09-26T19:52:58.474Z,80.24
2022-09-26T19:55:14.620Z,80.12
2022-09-26T19:57:24.992Z,80.89
2022-09-26T19:59:32.913Z,79.58
2022-09-26T20:01:44.336Z,80.19
2022-09-26T20:03:53.319Z,80.02
2022-09-26T20:06:01.230Z,78.43
2022-09-26T20:08:12.528Z,76.60
2022-09-26T20:10:22.657Z,76.47
2022-09-26T20:12:30.547Z,75.29
2022-09-26T20:14:38.755Z,75.31
2022-09-26T20:16:49.997Z,75.58
2022-09-26T20:18:58.501Z,75.71
2022-09-26T20:21:07.061Z,75.50
2022-09-26T20:23:22.135Z,74.72
2022-09-26T20:25:32.378Z,74.44
2022-09-26T20:27:40.243Z,73.65
2022-09-26T20:30:00.678Z,74.84
2022-09-26T20:32:15.358Z,75.34
2022-09-26T20:34:23.485Z,74.89
2022-09-26T20:36:33.746Z,75.29
2022-09-26T20:38:47.945Z,75.05
2022-09-26T20:41:03.398Z,76.38
2022-09-26T20:43:16.136Z,78.44
2022-09-26T20:45:32.019Z,81.07
2022-09-26T20:47:42.928Z,81.27
2022-09-26T20:49:54.989Z,80.91
2022-09-26T20:52:03.881Z,83.46
2022-09-26T20:54:24.379Z,85.07
2022-09-26T20:56:32.601Z,85.74
2022-09-26T20:58:42.356Z,88.44
2022-09-26T21:00:51.574Z,88.58
2022-09-26T21:03:02.062Z,89.88
2022-09-26T21:05:25.840Z,89.44
2022-09-26T21:07:35.731Z,89.72
2022-09-26T21:09:44.135Z,89.17
2022-09-26T21:11:52.133Z,88.54
2022-09-26T21:13:59.993Z,88.75
2022-09-26T21:16:08.459Z,87.96
2022-09-26T21:18:26.340Z,88.09
2022-09-26T21:20:37.877Z,85.97
2022-09-26T21:23:08.828Z,84.26
2022-09-26T21:25:19.360Z,83.63
2022-09-26T21:27:27.254Z,82.84
2022-09-26T21:29:35.056Z,83.25
2022-09-26T21:31:44.923Z,82.07
2022-09-26T21:33:56.482Z,82.04
2022-09-26T21:36:04.889Z,81.91
2022-09-26T21:38:13.125Z,81.69
2022-09-26T21:40:22.159Z,80.89
2022-09-26T21:42:30.331Z,80.28
2022-09-26T21:44:41.521Z,79.43
2022-09-26T21:46:49.440Z,79.56
2022-09-26T21:48:59.967Z,80.38
2022-09-26T21:51:08.784Z,79.66
2022-09-26T21:53:20.685Z,80.49
2022-09-26T21:55:34.371Z,81.04
2022-09-26T21:57:45.203Z,83.74
2022-09-26T21:59:55.033Z,84.41
2022-09-26T22:02:02.931Z,85.84
2022-09-26T22:04:14.563Z,87.94
2022-09-26T22:06:22.633Z,88.62
2022-09-26T22:08:31.067Z,88.96
2022-09-26T22:10:39.757Z,89.73
2022-09-26T22:12:47.820Z,90.00
2022-09-26T22:14:55.796Z,91.56
2022-09-26T22:17:04.263Z,93.17
2022-09-26T22:19:15.005Z,94.73
2022-09-26T22:21:24.542Z,94.52
2022-09-26T22:23:32.479Z,95.95
2022-09-26T22:25:42.936Z,97.32
2022-09-26T22:27:51.202Z,97.70
2022-09-26T22:29:59.107Z,97.53
2022-09-26T22:32:07.456Z,97.83
2022-09-26T22:34:18.049Z,99.06
2022-09-26T22:36:26.499Z,98.83
2022-09-26T22:38:38.301Z,99.67
2022-09-26T22:40:46.342Z,100.00
2022-09-26T22:42:54.233Z,100.00
2022-09-26T22:45:02.151Z,100.00
2022-09-26T22:47:10.028Z,100.00
2022-09-26T22:49:20.778Z,100.00
2022-09-26T22:51:29.042Z,100.00
2022-09-26T22:53:38.646Z,100.00
2022-09-26T22:55:55.290Z,100.00
2022-09-26T22:58:03.366Z,100.00
2022-09-26T23:00:13.196Z,100.00
2022-09-26T23:02:21.067Z,100.00
2022-09-26T23:04:47.036Z,100.00
2022-09-26T23:06:55.628Z,100.00
2022-09-26T23:09:03.439Z,100.00
2022-09-26T23:11:13.586Z,100.00
2022-09-26T23:13:21.449Z,100.00
2022-09-26T23:15:30.628Z,100.00
2022-09-26T23:17:39.209Z,100.00
2022-09-26T23:19:49.772Z,100.00
2022-09-26T23:21:58.210Z,100.00
2022-09-26T23:24:06.181Z,100.00
2022-09-26T23:26:20.237Z,100.00
2022-09-26T23:28:28.377Z,100.00
2022-09-26T23:30:36.338Z,100.00
2022-09-26T23:32:44.543Z,100.00
2022-09-26T23:34:55.473Z,100.00
2022-09-26T23:37:03.372Z,100.00
2022-09-26T23:39:11.412Z,100.00
2022-09-26T23:41:19.560Z,100.00
2022-09-26T23:43:27.435Z,100.00
2022-09-26T23:45:36.680Z,100.00
2022-09-26T23:47:44.703Z,100.00
2022-09-26T23:49:55.242Z,100.00
2022-09-26T23:52:03.339Z,100.00
2022-09-26T23:54:11.448Z,100.00
2022-09-26T23:56:19.467Z,100.00
2022-09-26T23:58:29.634Z,100.00
